createdAt,value
2018-06-23T00:00:17.714Z,1.87
2018-06-23T00:02:46.272Z,0.60
2018-06-23T00:05:15.821Z,1.07
2018-06-23T00:07:44.421Z,0.77
2018-06-23T00:10:12.866Z,1.63
2018-06-23T00:12:41.313Z,0.60
2018-06-23T00:15:10.313Z,0.40
2018-06-23T00:17:38.777Z,0.30
2018-06-23T00:20:07.522Z,0.67
2018-06-23T00:22:36.773Z,0.30
2018-06-23T00:25:05.705Z,3.30
2018-06-23T00:27:34.149Z,0.67
2018-06-23T00:30:02.696Z,1.43
2018-06-23T00:32:31.269Z,0.40
2018-06-23T00:34:59.715Z,0.73
2018-06-23T00:37:28.933Z,0.43
2018-06-23T00:39:57.649Z,0.37
2018-06-23T00:42:26.741Z,0.40
2018-06-23T00:44:55.162Z,0.40
2018-06-23T00:47:23.654Z,0.83
2018-06-23T00:49:52.593Z,0.40
2018-06-23T00:52:21.114Z,0.30
2018-06-23T00:54:49.569Z,0.40
2018-06-23T00:57:18.078Z,0.73
2018-06-23T00:59:47.049Z,0.60
2018-06-23T01:02:15.507Z,0.47
2018-06-23T01:04:44.053Z,0.50
2018-06-23T01:07:12.489Z,0.33
2018-06-23T01:09:40.973Z,0.40
2018-06-23T01:12:09.586Z,0.30
2018-06-23T01:14:38.449Z,0.30
2018-06-23T01:17:09.565Z,0.33
2018-06-23T01:19:38.256Z,0.70
2018-06-23T01:22:06.966Z,4.63
2018-06-23T01:24:35.493Z,1.00
2018-06-23T01:27:04.039Z,1.23
2018-06-23T01:29:33.019Z,0.33
2018-06-23T01:32:01.474Z,0.40
2018-06-23T01:34:30.207Z,0.63
2018-06-23T01:36:59.237Z,0.40
2018-06-23T01:39:27.766Z,1.33
2018-06-23T01:41:56.289Z,0.40
2018-06-23T01:44:24.925Z,1.63
2018-06-23T01:46:53.731Z,0.47
2018-06-23T01:49:22.157Z,0.30
2018-06-23T01:51:50.881Z,0.20
2018-06-23T01:54:19.293Z,0.37
2018-06-23T01:56:47.834Z,0.23
2018-06-23T01:59:16.349Z,0.27
2018-06-23T02:01:45.046Z,0.27
2018-06-23T02:04:13.498Z,0.50
2018-06-23T02:06:42.673Z,0.53
2018-06-23T02:09:11.881Z,0.23
2018-06-23T02:11:40.321Z,0.53
2018-06-23T02:14:13.970Z,0.20
2018-06-23T02:16:47.959Z,0.30
2018-06-23T02:19:22.017Z,0.13
2018-06-23T02:21:55.557Z,0.40
2018-06-23T02:24:29.470Z,0.23
2018-06-23T02:27:03.264Z,0.87
2018-06-23T02:29:37.494Z,0.30
2018-06-23T02:32:11.001Z,0.23
2018-06-23T02:34:44.762Z,0.20
2018-06-23T02:37:13.596Z,0.53
2018-06-23T02:39:42.107Z,0.30
2018-06-23T02:42:10.550Z,1.43
2018-06-23T02:44:39.170Z,0.30
2018-06-23T02:47:07.871Z,0.50
2018-06-23T02:49:36.465Z,0.57
2018-06-23T02:52:05.241Z,0.20
2018-06-23T02:54:33.729Z,0.30
2018-06-23T02:57:02.274Z,0.30
2018-06-23T02:59:31.161Z,0.70
2018-06-23T03:01:59.738Z,0.73
2018-06-23T03:04:28.184Z,0.93
2018-06-23T03:06:57.016Z,1.20
2018-06-23T03:09:25.568Z,0.50
2018-06-23T03:11:54.025Z,0.57
2018-06-23T03:14:23.090Z,0.10
2018-06-23T03:16:51.634Z,0.30
2018-06-23T03:19:20.077Z,0.10
2018-06-23T03:21:48.838Z,1.03
2018-06-23T03:24:17.553Z,0.40
2018-06-23T03:26:46.059Z,0.30
2018-06-23T03:29:14.557Z,0.20
2018-06-23T03:31:43.109Z,0.30
2018-06-23T03:34:11.565Z,0.20
2018-06-23T03:36:40.006Z,1.40
2018-06-23T03:39:10.213Z,0.20
2018-06-23T03:41:38.737Z,0.20
2018-06-23T03:44:07.197Z,0.20
2018-06-23T03:46:35.842Z,3.10
2018-06-23T03:49:04.390Z,0.20
2018-06-23T03:51:32.817Z,0.10
2018-06-23T03:54:01.236Z,0.10
2018-06-23T03:56:30.447Z,0.30
2018-06-23T03:58:59.057Z,0.20
2018-06-23T04:01:27.478Z,0.10
2018-06-23T04:03:56.085Z,0.23
2018-06-23T04:06:24.681Z,0.20
2018-06-23T04:08:53.105Z,0.10
2018-06-23T04:11:21.562Z,1.93
2018-06-23T04:13:50.138Z,0.40
2018-06-23T04:16:18.985Z,0.20
2018-06-23T04:18:52.701Z,0.20
2018-06-23T04:21:21.303Z,0.87
2018-06-23T04:23:49.737Z,0.10
2018-06-23T04:26:18.201Z,0.40
2018-06-23T04:28:47.611Z,0.20
2018-06-23T04:31:16.071Z,0.30
2018-06-23T04:33:44.753Z,0.20
2018-06-23T04:36:13.447Z,0.47
2018-06-23T04:38:41.889Z,0.50
2018-06-23T04:41:10.782Z,0.40
2018-06-23T04:43:39.238Z,0.57
2018-06-23T04:46:07.793Z,0.10
2018-06-23T04:48:36.961Z,0.20
2018-06-23T04:51:05.990Z,0.20
2018-06-23T04:53:49.662Z,0.17
2018-06-23T04:56:18.736Z,0.40
2018-06-23T04:58:47.174Z,0.10
2018-06-23T05:01:15.665Z,0.30
2018-06-23T05:03:45.260Z,0.10
2018-06-23T05:06:14.089Z,0.50
2018-06-23T05:08:42.536Z,0.27
2018-06-23T05:11:11.248Z,0.40
2018-06-23T05:13:39.965Z,0.10
2018-06-23T05:16:08.679Z,0.93
2018-06-23T05:18:37.610Z,0.10
2018-06-23T05:21:07.029Z,0.30
2018-06-23T05:23:37.329Z,0.10
2018-06-23T05:26:06.502Z,0.10
2018-06-23T05:28:34.909Z,0.30
2018-06-23T05:31:03.465Z,0.20
2018-06-23T05:33:32.177Z,0.87
2018-06-23T05:36:00.786Z,0.10
2018-06-23T05:38:29.593Z,0.20
2018-06-23T05:40:58.537Z,2.63
2018-06-23T05:43:26.949Z,0.20
2018-06-23T05:45:55.424Z,0.37
2018-06-23T05:48:24.393Z,0.57
2018-06-23T05:50:52.894Z,0.33
2018-06-23T05:53:21.385Z,0.43
2018-06-23T05:55:50.457Z,0.47
2018-06-23T05:58:18.893Z,0.10
2018-06-23T06:00:47.415Z,0.43
2018-06-23T06:03:16.298Z,0.20
2018-06-23T06:05:44.783Z,2.30
2018-06-23T06:08:14.103Z,0.10
2018-06-23T06:10:42.625Z,0.20
2018-06-23T06:13:11.082Z,0.87
2018-06-23T06:15:39.549Z,0.97
2018-06-23T06:18:08.293Z,0.30
2018-06-23T06:20:36.910Z,0.20
2018-06-23T06:23:05.501Z,0.60
2018-06-23T06:25:34.161Z,0.73
2018-06-23T06:28:02.717Z,0.17
2018-06-23T06:30:31.430Z,0.50
2018-06-23T06:33:00.054Z,0.37
2018-06-23T06:35:28.473Z,0.10
2018-06-23T06:37:56.958Z,0.10
2018-06-23T06:40:25.486Z,0.40
2018-06-23T06:42:53.943Z,0.20
2018-06-23T06:45:22.497Z,0.73
2018-06-23T06:47:50.978Z,0.10
2018-06-23T06:50:19.398Z,0.20
2018-06-23T06:52:48.378Z,1.20
2018-06-23T06:55:17.521Z,0.10
2018-06-23T06:57:45.914Z,0.20
2018-06-23T07:00:14.565Z,0.73
2018-06-23T07:02:44.265Z,1.47
2018-06-23T07:05:12.678Z,2.10
2018-06-23T07:07:41.146Z,0.10
2018-06-23T07:10:09.729Z,0.33
2018-06-23T07:12:38.181Z,0.20
2018-06-23T07:15:13.206Z,0.10
2018-06-23T07:17:41.697Z,0.30
2018-06-23T07:20:11.033Z,0.10
2018-06-23T07:22:40.153Z,0.30
2018-06-23T07:25:08.573Z,0.13
2018-06-23T07:27:37.097Z,0.67
2018-06-23T07:30:07.401Z,0.27
2018-06-23T07:32:36.762Z,0.57
2018-06-23T07:35:05.445Z,0.50
2018-06-23T07:37:34.089Z,1.33
2018-06-23T07:40:02.585Z,0.10
2018-06-23T07:42:31.041Z,0.10
2018-06-23T07:44:59.693Z,0.43
2018-06-23T07:47:28.109Z,0.90
2018-06-23T07:49:56.646Z,1.43
2018-06-23T07:52:25.473Z,0.40
2018-06-23T07:54:54.022Z,0.30
2018-06-23T07:57:22.449Z,2.17
2018-06-23T07:59:51.019Z,1.70
2018-06-23T08:02:19.818Z,0.13
2018-06-23T08:04:48.326Z,0.20
2018-06-23T08:07:16.885Z,0.47
2018-06-23T08:09:45.317Z,0.83
2018-06-23T08:12:14.194Z,0.20
2018-06-23T08:14:49.247Z,1.40
2018-06-23T08:17:17.730Z,1.30
2018-06-23T08:19:46.172Z,0.53
2018-06-23T08:22:15.109Z,0.20
2018-06-23T08:24:43.776Z,0.40
2018-06-23T08:27:12.373Z,0.67
2018-06-23T08:29:41.143Z,0.30
2018-06-23T08:32:09.599Z,0.20
2018-06-23T08:34:38.186Z,0.60
2018-06-23T08:37:06.813Z,0.40
2018-06-23T08:39:35.565Z,0.50
2018-06-23T08:42:04.018Z,0.20
2018-06-23T08:44:32.871Z,1.47
2018-06-23T08:47:01.595Z,0.50
2018-06-23T08:49:31.270Z,1.10
2018-06-23T08:52:00.269Z,1.53
2018-06-23T08:54:28.688Z,0.10
2018-06-23T08:56:57.197Z,0.30
2018-06-23T08:59:26.292Z,0.33
2018-06-23T09:01:55.177Z,0.57
2018-06-23T09:04:23.613Z,0.30
2018-06-23T09:06:52.373Z,1.23
2018-06-23T09:09:20.809Z,0.40
2018-06-23T09:11:49.234Z,4.53
2018-06-23T09:14:18.423Z,0.30
2018-06-23T09:16:46.989Z,0.43
2018-06-23T09:19:15.798Z,0.23
2018-06-23T09:21:44.665Z,0.77
2018-06-23T09:24:13.109Z,0.13
2018-06-23T09:26:41.887Z,0.33
2018-06-23T09:29:10.626Z,1.07
2018-06-23T09:31:39.057Z,0.63
2018-06-23T09:34:07.489Z,0.63
2018-06-23T09:36:37.109Z,0.80
2018-06-23T09:39:09.005Z,0.20
2018-06-23T09:41:37.527Z,1.02
2018-06-23T09:44:06.901Z,0.35
2018-06-23T09:46:35.466Z,0.53
2018-06-23T09:49:04.441Z,0.33
2018-06-23T09:51:32.959Z,1.45
2018-06-23T09:54:01.501Z,0.90
2018-06-23T09:56:29.998Z,0.20
2018-06-23T09:58:58.561Z,0.47
2018-06-23T10:01:27.086Z,0.80
2018-06-23T10:03:55.977Z,0.10
2018-06-23T10:06:25.273Z,0.83
2018-06-23T10:08:53.878Z,0.65
2018-06-23T10:11:22.577Z,0.63
2018-06-23T10:13:51.346Z,0.50
2018-06-23T10:16:19.953Z,1.33
2018-06-23T10:18:48.562Z,1.33
2018-06-23T10:21:17.101Z,0.40
2018-06-23T10:23:45.566Z,0.10
2018-06-23T10:26:14.071Z,0.30
2018-06-23T10:28:44.129Z,0.30
2018-06-23T10:31:13.017Z,0.90
2018-06-23T10:33:41.481Z,0.20
2018-06-23T10:36:10.437Z,0.30
2018-06-23T10:38:39.006Z,0.40
2018-06-23T10:41:07.469Z,0.37
2018-06-23T10:43:36.530Z,0.30
2018-06-23T10:46:05.409Z,0.30
2018-06-23T10:48:35.153Z,0.42
2018-06-23T10:51:05.129Z,1.40
2018-06-23T10:53:33.623Z,0.25
2018-06-23T10:56:02.081Z,0.40
2018-06-23T10:58:30.526Z,2.15
2018-06-23T11:00:59.061Z,1.90
2018-06-23T11:03:27.565Z,0.28
2018-06-23T11:05:56.014Z,0.20
2018-06-23T11:08:24.688Z,0.40
2018-06-23T11:10:53.578Z,0.83
2018-06-23T11:13:21.989Z,0.93
2018-06-23T11:15:50.643Z,0.80
2018-06-23T11:18:19.320Z,0.87
2018-06-23T11:20:47.865Z,1.27
2018-06-23T11:23:16.373Z,2.57
2018-06-23T11:25:44.800Z,2.07
2018-06-23T11:28:14.049Z,0.87
2018-06-23T11:30:42.549Z,0.50
2018-06-23T11:33:11.440Z,0.53
2018-06-23T11:35:40.054Z,0.80
2018-06-23T11:38:08.589Z,1.50
2018-06-23T11:40:37.021Z,0.78
2018-06-23T11:43:05.674Z,2.13
2018-06-23T11:45:34.290Z,3.33
2018-06-23T11:48:02.737Z,0.35
2018-06-23T11:50:31.266Z,1.57
2018-06-23T11:52:59.921Z,0.60
2018-06-23T11:55:28.365Z,1.37
2018-06-23T11:57:57.373Z,0.82
2018-06-23T12:00:26.014Z,0.53
2018-06-23T12:02:54.435Z,0.45
2018-06-23T12:05:22.898Z,1.65
2018-06-23T12:07:51.633Z,1.95
2018-06-23T12:10:20.298Z,0.55
2018-06-23T12:12:49.245Z,2.15
2018-06-23T12:15:17.736Z,0.80
2018-06-23T12:17:46.246Z,0.35
2018-06-23T12:20:14.973Z,0.30
2018-06-23T12:22:43.362Z,1.22
2018-06-23T12:25:11.841Z,0.57
2018-06-23T12:27:40.957Z,1.17
2018-06-23T12:30:09.437Z,1.03
2018-06-23T12:32:37.873Z,0.70
2018-06-23T12:35:07.282Z,1.30
2018-06-23T12:37:35.754Z,1.50
2018-06-23T12:40:05.081Z,0.30
2018-06-23T12:42:35.497Z,0.93
2018-06-23T12:45:05.542Z,0.60
2018-06-23T12:47:33.973Z,0.67
2018-06-23T12:50:02.464Z,0.40
2018-06-23T12:52:31.003Z,0.70
2018-06-23T12:54:59.458Z,1.40
2018-06-23T12:57:27.947Z,0.87
2018-06-23T12:59:56.743Z,2.00
2018-06-23T13:02:25.302Z,0.50
2018-06-23T13:04:54.189Z,0.60
2018-06-23T13:07:22.699Z,0.60
2018-06-23T13:09:51.117Z,0.83
2018-06-23T13:12:19.597Z,1.23
2018-06-23T13:14:48.113Z,1.80
2018-06-23T13:17:16.533Z,1.17
2018-06-23T13:19:45.541Z,0.50
2018-06-23T13:22:14.294Z,1.17
2018-06-23T13:24:42.717Z,0.40
2018-06-23T13:27:11.441Z,1.00
2018-06-23T13:29:39.909Z,0.40
2018-06-23T13:32:08.929Z,0.65
2018-06-23T13:34:37.573Z,0.82
2018-06-23T13:37:06.268Z,3.10
2018-06-23T13:39:34.701Z,0.93
2018-06-23T13:42:04.499Z,2.17
2018-06-23T13:44:33.051Z,1.00
2018-06-23T13:47:01.542Z,1.43
2018-06-23T13:49:30.454Z,1.13
2018-06-23T13:51:58.981Z,0.93
2018-06-23T13:54:27.503Z,1.33
2018-06-23T13:56:56.090Z,0.90
2018-06-23T13:59:24.602Z,2.33
2018-06-23T14:01:55.025Z,2.63
2018-06-23T14:04:23.669Z,0.90
2018-06-23T14:06:52.101Z,1.13
2018-06-23T14:09:20.625Z,0.93
2018-06-23T14:11:49.600Z,1.87
2018-06-23T14:14:18.213Z,0.73
2018-06-23T14:16:46.665Z,0.83
2018-06-23T14:19:15.585Z,0.70
2018-06-23T14:21:44.067Z,1.20
2018-06-23T14:24:12.641Z,1.90
2018-06-23T14:26:41.308Z,1.47
2018-06-23T14:29:09.845Z,0.67
2018-06-23T14:31:38.449Z,1.10
2018-06-23T14:34:07.026Z,0.47
2018-06-23T14:36:36.693Z,1.13
2018-06-23T14:39:08.626Z,0.70
2018-06-23T14:41:38.413Z,1.07
2018-06-23T14:44:07.141Z,0.67
2018-06-23T14:46:35.976Z,0.90
2018-06-23T14:49:04.414Z,1.95
2018-06-23T14:51:32.858Z,2.20
2018-06-23T14:54:02.138Z,2.40
2018-06-23T14:56:30.585Z,0.90
2018-06-23T14:58:59.041Z,0.68
2018-06-23T15:01:28.382Z,1.57
2018-06-23T15:03:56.812Z,1.00
2018-06-23T15:06:25.238Z,1.72
2018-06-23T15:09:05.310Z,1.10
2018-06-23T15:11:44.842Z,1.87
2018-06-23T15:14:13.521Z,1.60
2018-06-23T15:16:41.942Z,1.10
2018-06-23T15:19:10.945Z,1.50
2018-06-23T15:21:39.483Z,2.42
2018-06-23T15:24:07.893Z,2.95
2018-06-23T15:26:36.621Z,1.20
2018-06-23T15:29:05.521Z,1.65
2018-06-23T15:31:35.213Z,1.72
2018-06-23T15:34:03.754Z,1.65
2018-06-23T15:36:32.301Z,1.72
2018-06-23T15:39:00.733Z,2.05
2018-06-23T15:41:29.464Z,1.98
2018-06-23T15:43:58.149Z,0.82
2018-06-23T15:46:26.600Z,1.77
2018-06-23T15:48:55.184Z,2.08
2018-06-23T15:51:23.846Z,1.62
2018-06-23T15:53:52.279Z,2.47
2018-06-23T15:56:20.777Z,1.87
2018-06-23T15:58:49.334Z,1.70
2018-06-23T16:01:17.760Z,1.10
2018-06-23T16:03:46.189Z,1.37
2018-06-23T16:06:14.981Z,1.92
2018-06-23T16:08:43.871Z,2.08
2018-06-23T16:11:12.307Z,5.78
2018-06-23T16:13:40.848Z,2.05
2018-06-23T16:16:10.341Z,2.20
2018-06-23T16:18:38.761Z,2.20
2018-06-23T16:21:07.269Z,2.50
2018-06-23T16:23:35.887Z,2.08
2018-06-23T16:26:04.998Z,1.62
2018-06-23T16:28:34.431Z,1.50
2018-06-23T16:31:02.837Z,2.37
2018-06-23T16:33:31.650Z,2.12
2018-06-23T16:36:00.237Z,2.02
2018-06-23T16:38:28.686Z,2.52
2018-06-23T16:40:57.423Z,3.15
2018-06-23T16:43:26.600Z,2.55
2018-06-23T16:45:55.030Z,2.65
2018-06-23T16:48:23.473Z,2.02
2018-06-23T16:50:52.461Z,2.42
2018-06-23T16:53:20.897Z,3.15
2018-06-23T16:55:49.313Z,2.77
2018-06-23T16:58:18.198Z,3.10
2018-06-23T17:00:46.871Z,2.90
2018-06-23T17:03:15.293Z,1.45
2018-06-23T17:05:43.773Z,1.92
2018-06-23T17:08:12.284Z,2.65
2018-06-23T17:10:40.699Z,1.67
2018-06-23T17:13:09.233Z,2.40
2018-06-23T17:15:37.654Z,1.85
2018-06-23T17:18:06.725Z,2.98
2018-06-23T17:20:35.341Z,2.87
2018-06-23T17:23:04.064Z,3.90
2018-06-23T17:25:33.567Z,1.65
2018-06-23T17:28:02.053Z,1.85
2018-06-23T17:30:30.874Z,2.05
2018-06-23T17:32:59.491Z,2.53
2018-06-23T17:35:28.069Z,2.57
2018-06-23T17:37:56.509Z,2.03
2018-06-23T17:40:24.961Z,3.00
2018-06-23T17:42:53.562Z,2.27
2018-06-23T17:45:22.446Z,2.63
2018-06-23T17:47:50.897Z,2.27
2018-06-23T17:50:21.008Z,2.90
2018-06-23T17:52:49.890Z,2.90
2018-06-23T17:55:18.350Z,3.67
2018-06-23T17:57:46.974Z,2.33
2018-06-23T18:00:15.659Z,2.70
2018-06-23T18:02:44.133Z,2.60
2018-06-23T18:05:12.609Z,1.97
2018-06-23T18:07:41.417Z,1.17
2018-06-23T18:10:10.067Z,2.50
2018-06-23T18:12:38.525Z,1.93
2018-06-23T18:15:07.041Z,1.97
2018-06-23T18:17:35.925Z,1.67
2018-06-23T18:20:04.399Z,1.37
2018-06-23T18:22:32.858Z,3.07
2018-06-23T18:25:01.369Z,4.30
2018-06-23T18:27:29.860Z,1.87
2018-06-23T18:29:58.293Z,2.80
2018-06-23T18:32:27.021Z,2.43
2018-06-23T18:34:55.481Z,1.80
2018-06-23T18:37:24.220Z,2.03
2018-06-23T18:39:53.054Z,2.57
2018-06-23T18:42:21.962Z,3.00
2018-06-23T18:44:50.744Z,3.20
2018-06-23T18:47:19.635Z,2.77
2018-06-23T18:49:48.095Z,2.87
2018-06-23T18:52:16.638Z,3.17
2018-06-23T18:54:45.081Z,3.77
2018-06-23T18:57:13.638Z,2.43
2018-06-23T18:59:43.269Z,2.33
2018-06-23T19:02:11.724Z,3.83
2018-06-23T19:04:40.178Z,1.63
2018-06-23T19:07:08.925Z,2.97
2018-06-23T19:09:37.381Z,3.13
2018-06-23T19:12:06.740Z,2.40
2018-06-23T19:14:35.237Z,2.80
2018-06-23T19:17:04.149Z,2.00
2018-06-23T19:19:32.747Z,2.27
2018-06-23T19:22:01.225Z,3.27
2018-06-23T19:24:29.773Z,2.90
2018-06-23T19:26:58.635Z,2.50
2018-06-23T19:29:27.065Z,2.80
2018-06-23T19:31:55.762Z,2.20
2018-06-23T19:34:24.598Z,4.07
2018-06-23T19:36:53.075Z,3.17
2018-06-23T19:39:21.532Z,3.00
2018-06-23T19:41:50.185Z,3.97
2018-06-23T19:44:18.841Z,2.30
2018-06-23T19:46:47.269Z,2.83
2018-06-23T19:49:16.768Z,2.77
2018-06-23T19:51:45.555Z,2.73
2018-06-23T19:54:14.016Z,3.47
2018-06-23T19:56:42.489Z,5.17
2018-06-23T19:59:10.973Z,4.83
2018-06-23T20:01:39.393Z,2.17
2018-06-23T20:04:09.079Z,4.20
2018-06-23T20:06:37.614Z,4.00
2018-06-23T20:09:08.233Z,2.90
2018-06-23T20:11:37.067Z,2.27
2018-06-23T20:14:06.213Z,2.40
2018-06-23T20:16:34.704Z,3.00
2018-06-23T20:19:03.236Z,2.83
2018-06-23T20:21:31.786Z,2.93
2018-06-23T20:24:00.213Z,1.93
2018-06-23T20:26:29.195Z,1.90
2018-06-23T20:28:57.649Z,3.57
2018-06-23T20:31:26.085Z,2.93
2018-06-23T20:33:54.545Z,2.00
2018-06-23T20:36:23.162Z,2.07
2018-06-23T20:38:51.782Z,1.77
2018-06-23T20:41:20.493Z,2.23
2018-06-23T20:43:49.019Z,2.87
2018-06-23T20:46:17.442Z,3.07
2018-06-23T20:48:46.240Z,3.73
2018-06-23T20:51:15.301Z,3.30
2018-06-23T20:53:43.788Z,2.87
2018-06-23T20:56:12.286Z,1.60
2018-06-23T20:58:40.816Z,1.23
2018-06-23T21:01:09.933Z,1.70
2018-06-23T21:03:38.253Z,2.53
2018-06-23T21:06:06.675Z,3.17
2018-06-23T21:08:35.337Z,1.70
2018-06-23T21:11:04.199Z,1.70
2018-06-23T21:13:32.624Z,1.37
2018-06-23T21:16:01.057Z,1.63
2018-06-23T21:18:30.157Z,2.57
2018-06-23T21:20:58.578Z,2.17
2018-06-23T21:23:27.289Z,3.03
2018-06-23T21:25:56.133Z,2.10
2018-06-23T21:28:24.541Z,2.50
2018-06-23T21:30:52.984Z,1.57
2018-06-23T21:33:21.696Z,3.63
2018-06-23T21:35:50.117Z,3.30
2018-06-23T21:38:21.961Z,2.03
2018-06-23T21:40:50.685Z,4.17
2018-06-23T21:43:19.117Z,3.50
2018-06-23T21:45:47.621Z,1.83
2018-06-23T21:48:16.274Z,1.40
2018-06-23T21:50:44.909Z,1.80
2018-06-23T21:53:13.499Z,4.43
2018-06-23T21:55:42.271Z,1.87
2018-06-23T21:58:10.964Z,1.70
2018-06-23T22:00:43.293Z,2.30
2018-06-23T22:03:12.890Z,2.10
2018-06-23T22:05:41.394Z,2.63
2018-06-23T22:08:10.289Z,2.40
2018-06-23T22:10:39.276Z,3.10
2018-06-23T22:13:07.764Z,1.10
2018-06-23T22:15:36.338Z,2.30
2018-06-23T22:18:05.072Z,2.63
2018-06-23T22:20:33.657Z,2.60
2018-06-23T22:23:02.334Z,2.20
2018-06-23T22:25:30.914Z,3.77
2018-06-23T22:27:59.348Z,4.33
2018-06-23T22:30:27.795Z,2.33
2018-06-23T22:32:56.570Z,2.37
2018-06-23T22:35:25.018Z,1.90
2018-06-23T22:37:53.477Z,1.10
2018-06-23T22:40:22.243Z,1.93
2018-06-23T22:42:50.969Z,1.90
2018-06-23T22:45:19.441Z,3.13
2018-06-23T22:47:47.873Z,2.10
2018-06-23T22:50:16.423Z,1.43
2018-06-23T22:52:44.933Z,3.47
2018-06-23T22:55:13.500Z,2.73
2018-06-23T22:57:42.194Z,3.30
2018-06-23T23:00:13.217Z,2.43
2018-06-23T23:02:42.525Z,2.77
2018-06-23T23:05:11.685Z,3.23
2018-06-23T23:07:40.973Z,2.30
2018-06-23T23:10:10.353Z,2.00
2018-06-23T23:12:38.818Z,1.43
2018-06-23T23:15:07.484Z,3.67
2018-06-23T23:17:36.078Z,2.40
2018-06-23T23:20:04.990Z,2.33
2018-06-23T23:22:33.441Z,1.23
2018-06-23T23:25:02.020Z,2.53
2018-06-23T23:27:30.445Z,3.13
2018-06-23T23:29:58.991Z,4.50
2018-06-23T23:32:27.501Z,4.70
2018-06-23T23:34:55.929Z,1.50
2018-06-23T23:37:24.443Z,2.47
2018-06-23T23:39:53.014Z,1.50
2018-06-23T23:42:21.585Z,1.97
2018-06-23T23:44:50.089Z,1.93
2018-06-23T23:47:18.702Z,2.57
2018-06-23T23:49:47.109Z,1.40
2018-06-23T23:52:15.604Z,2.47
2018-06-23T23:54:44.487Z,4.97
2018-06-23T23:57:13.288Z,2.93
2018-06-23T23:59:41.797Z,2.20
